createdAt,value
2022-10-24T00:01:24.659Z,15.07
2022-10-24T00:03:52.260Z,10.18
2022-10-24T00:06:20.850Z,13.55
2022-10-24T00:08:49.013Z,9.82
2022-10-24T00:11:19.735Z,7.88
2022-10-24T00:13:47.266Z,22.50
2022-10-24T00:16:15.384Z,9.70
2022-10-24T00:18:42.977Z,18.73
2022-10-24T00:21:11.080Z,16.50
2022-10-24T00:23:38.805Z,14.70
2022-10-24T00:26:07.337Z,12.88
2022-10-24T00:28:37.738Z,14.35
2022-10-24T00:31:06.414Z,13.00
2022-10-24T00:33:34.177Z,11.90
2022-10-24T00:36:01.724Z,13.77
2022-10-24T00:38:29.250Z,8.27
2022-10-24T00:40:56.874Z,8.88
2022-10-24T00:43:26.773Z,9.38
2022-10-24T00:45:57.319Z,12.80
2022-10-24T00:48:29.123Z,12.32
2022-10-24T00:51:00.073Z,11.52
2022-10-24T00:53:29.058Z,15.88
2022-10-24T00:56:00.950Z,23.50
2022-10-24T00:58:30.961Z,26.67
2022-10-24T01:01:00.311Z,19.58
2022-10-24T01:03:28.120Z,19.38
2022-10-24T01:06:14.988Z,18.15
2022-10-24T01:08:50.310Z,24.90
2022-10-24T01:11:31.393Z,18.42
2022-10-24T01:14:09.291Z,23.23
2022-10-24T01:16:47.283Z,24.25
2022-10-24T01:19:32.103Z,21.08
2022-10-24T01:22:03.883Z,22.48
2022-10-24T01:24:46.095Z,34.38
2022-10-24T01:27:31.773Z,23.30
2022-10-24T01:30:08.870Z,20.08
2022-10-24T01:32:42.155Z,18.75
2022-10-24T01:35:23.014Z,18.15
2022-10-24T01:37:55.578Z,18.77
2022-10-24T01:40:29.592Z,19.73
2022-10-24T01:43:02.184Z,28.52
2022-10-24T01:45:34.584Z,29.05
2022-10-24T01:48:06.846Z,28.92
2022-10-24T01:50:37.536Z,26.23
2022-10-24T01:53:06.377Z,42.17
2022-10-24T01:55:34.230Z,35.08
2022-10-24T01:58:02.596Z,34.83
2022-10-24T02:00:31.913Z,20.40
2022-10-24T02:03:02.893Z,19.20
2022-10-24T02:05:34.088Z,41.88
2022-10-24T02:08:05.720Z,28.75
2022-10-24T02:10:38.443Z,28.38
2022-10-24T02:13:12.150Z,16.83
2022-10-24T02:15:44.316Z,34.35
2022-10-24T02:18:12.791Z,33.65
2022-10-24T02:20:47.917Z,30.92
2022-10-24T02:23:22.820Z,40.80
2022-10-24T02:25:55.605Z,49.30
2022-10-24T02:28:25.578Z,17.65
2022-10-24T02:31:00.594Z,38.55
2022-10-24T02:33:30.081Z,28.17
2022-10-24T02:35:58.947Z,23.75
2022-10-24T02:38:30.683Z,34.78
2022-10-24T02:40:59.895Z,17.40
2022-10-24T02:43:29.221Z,21.02
2022-10-24T02:45:59.697Z,20.20
2022-10-24T02:48:31.098Z,19.35
2022-10-24T02:50:59.373Z,40.00
2022-10-24T02:53:28.851Z,20.88
2022-10-24T02:55:56.470Z,20.95
2022-10-24T02:58:23.983Z,18.33
2022-10-24T03:00:51.515Z,18.85
2022-10-24T03:03:22.270Z,17.42
2022-10-24T03:05:49.987Z,30.80
2022-10-24T03:08:17.487Z,27.98
2022-10-24T03:10:45.025Z,25.52
2022-10-24T03:13:12.555Z,27.38
2022-10-24T03:15:40.115Z,22.00
2022-10-24T03:18:07.707Z,39.22
2022-10-24T03:20:36.631Z,32.78
2022-10-24T03:23:04.278Z,32.17
2022-10-24T03:25:31.798Z,35.95
2022-10-24T03:27:59.301Z,38.75
2022-10-24T03:30:26.829Z,30.60
2022-10-24T03:32:54.385Z,27.38
2022-10-24T03:35:21.972Z,35.13
2022-10-24T03:37:50.814Z,29.40
2022-10-24T03:40:18.448Z,38.75
2022-10-24T03:42:46.242Z,40.60
2022-10-24T03:45:14.040Z,45.13
2022-10-24T03:47:41.554Z,32.58
2022-10-24T03:50:09.853Z,41.15
2022-10-24T03:52:37.381Z,54.85
2022-10-24T03:55:07.196Z,35.78
2022-10-24T03:57:34.733Z,43.38
2022-10-24T04:00:02.279Z,40.17
2022-10-24T04:02:29.796Z,32.15
2022-10-24T04:04:57.313Z,26.00
2022-10-24T04:07:24.977Z,48.67
2022-10-24T04:09:52.501Z,75.75
2022-10-24T04:12:21.361Z,73.63
2022-10-24T04:14:48.891Z,60.42
2022-10-24T04:17:16.788Z,83.88
2022-10-24T04:19:44.384Z,92.57
2022-10-24T04:22:12.139Z,86.40
2022-10-24T04:24:40.273Z,118.97
2022-10-24T04:27:07.890Z,106.03
2022-10-24T04:29:37.024Z,131.48
2022-10-24T04:32:05.400Z,150.05
2022-10-24T04:34:35.807Z,123.22
2022-10-24T04:37:03.422Z,136.88
2022-10-24T04:39:31.088Z,128.65
2022-10-24T04:41:58.644Z,72.95
2022-10-24T04:44:26.161Z,54.22
2022-10-24T04:46:55.055Z,62.25
2022-10-24T04:49:22.596Z,70.30
2022-10-24T04:51:50.100Z,46.20
2022-10-24T04:54:17.624Z,47.47
2022-10-24T04:56:45.137Z,49.33
2022-10-24T04:59:12.635Z,51.88
2022-10-24T05:01:40.192Z,38.40
2022-10-24T05:04:09.200Z,38.30
2022-10-24T05:06:38.391Z,34.50
2022-10-24T05:09:07.828Z,47.88
2022-10-24T05:11:35.379Z,47.38
2022-10-24T05:14:02.867Z,46.17
2022-10-24T05:16:30.395Z,52.92
2022-10-24T05:18:57.940Z,29.25
2022-10-24T05:21:26.788Z,20.10
2022-10-24T05:23:54.588Z,20.08
2022-10-24T05:26:22.116Z,24.90
2022-10-24T05:28:52.419Z,35.25
2022-10-24T05:31:20.562Z,37.53
2022-10-24T05:33:48.104Z,35.60
2022-10-24T05:36:15.864Z,34.90
2022-10-24T05:38:44.780Z,35.80
2022-10-24T05:41:12.492Z,34.60
2022-10-24T05:43:40.004Z,42.72
2022-10-24T05:46:08.033Z,42.85
2022-10-24T05:48:36.445Z,47.35
2022-10-24T05:51:04.011Z,50.30
2022-10-24T05:53:31.550Z,46.90
2022-10-24T05:56:00.418Z,44.50
2022-10-24T05:58:27.907Z,47.80
2022-10-24T06:00:55.482Z,46.72
2022-10-24T06:03:23.098Z,39.95
2022-10-24T06:05:50.860Z,38.28
2022-10-24T06:08:19.136Z,43.75
2022-10-24T06:10:48.503Z,37.55
2022-10-24T06:13:18.407Z,40.67
2022-10-24T06:15:46.186Z,40.40
2022-10-24T06:18:13.690Z,44.30
2022-10-24T06:20:41.194Z,43.13
2022-10-24T06:23:08.758Z,36.88
2022-10-24T06:25:36.559Z,36.38
2022-10-24T06:28:04.375Z,36.05
2022-10-24T06:30:33.232Z,34.90
2022-10-24T06:33:01.341Z,37.33
2022-10-24T06:35:28.967Z,38.78
2022-10-24T06:37:56.477Z,35.40
2022-10-24T06:40:24.007Z,44.67
2022-10-24T06:42:51.577Z,32.40
2022-10-24T06:45:21.228Z,35.83
2022-10-24T06:47:52.003Z,34.03
2022-10-24T06:50:21.791Z,34.50
2022-10-24T06:52:49.332Z,31.63
2022-10-24T06:55:17.002Z,34.22
2022-10-24T06:57:44.827Z,40.35
2022-10-24T07:00:14.201Z,57.25
2022-10-24T07:02:41.967Z,57.28
2022-10-24T07:05:12.725Z,65.78
2022-10-24T07:07:41.690Z,69.18
2022-10-24T07:10:11.412Z,78.97
2022-10-24T07:12:38.931Z,85.78
2022-10-24T07:15:07.733Z,90.05
2022-10-24T07:17:40.571Z,49.40
2022-10-24T07:20:08.967Z,49.45
2022-10-24T07:22:38.220Z,37.42
2022-10-24T07:25:07.665Z,28.40
2022-10-24T07:27:35.362Z,19.52
2022-10-24T07:30:05.643Z,23.38
2022-10-24T07:32:33.877Z,24.02
2022-10-24T07:35:01.659Z,22.00
2022-10-24T07:37:29.187Z,31.58
2022-10-24T07:39:58.037Z,49.35
2022-10-24T07:42:25.531Z,26.70
2022-10-24T07:44:53.053Z,50.00
2022-10-24T07:47:20.550Z,25.80
2022-10-24T07:49:48.095Z,35.97
2022-10-24T07:52:15.612Z,40.28
2022-10-24T07:54:43.107Z,35.70
2022-10-24T07:57:11.969Z,37.85
2022-10-24T07:59:42.981Z,42.70
2022-10-24T08:02:12.038Z,32.08
2022-10-24T08:04:39.690Z,41.22
2022-10-24T08:07:12.940Z,41.10
2022-10-24T08:09:40.984Z,29.05
2022-10-24T08:12:08.922Z,32.08
2022-10-24T08:14:39.651Z,30.27
2022-10-24T08:17:07.555Z,31.73
2022-10-24T08:19:35.571Z,35.47
2022-10-24T08:22:03.857Z,38.70
2022-10-24T08:24:31.372Z,31.23
2022-10-24T08:26:58.904Z,28.52
2022-10-24T08:29:26.805Z,26.38
2022-10-24T08:31:57.485Z,22.17
2022-10-24T08:34:25.080Z,26.10
2022-10-24T08:36:52.710Z,23.58
2022-10-24T08:39:21.059Z,27.30
2022-10-24T08:41:54.558Z,21.30
2022-10-24T08:44:29.314Z,20.92
2022-10-24T08:47:03.817Z,30.65
2022-10-24T08:49:39.304Z,29.13
2022-10-24T08:52:18.042Z,25.58
2022-10-24T08:54:47.021Z,37.85
2022-10-24T08:57:23.076Z,49.83
2022-10-24T08:59:52.981Z,37.97
2022-10-24T09:02:25.845Z,28.65
2022-10-24T09:04:57.931Z,24.80
2022-10-24T09:07:26.634Z,18.40
2022-10-24T09:10:04.158Z,18.45
2022-10-24T09:12:31.719Z,21.00
2022-10-24T09:15:01.182Z,15.68
2022-10-24T09:17:33.475Z,11.10
2022-10-24T09:20:05.217Z,12.70
2022-10-24T09:22:38.422Z,11.48
2022-10-24T09:25:12.844Z,14.10
2022-10-24T09:27:41.818Z,12.35
2022-10-24T09:30:18.503Z,14.15
2022-10-24T09:32:48.106Z,17.98
2022-10-24T09:35:21.784Z,14.52
2022-10-24T09:37:55.170Z,14.52
2022-10-24T09:40:25.279Z,23.30
2022-10-24T09:42:57.093Z,13.38
2022-10-24T09:45:34.949Z,18.70
2022-10-24T09:48:07.158Z,17.23
2022-10-24T09:50:36.347Z,16.17
2022-10-24T09:53:05.544Z,15.50
2022-10-24T09:55:34.325Z,15.55
2022-10-24T09:58:05.291Z,18.60
2022-10-24T10:00:35.176Z,15.57
2022-10-24T10:03:07.115Z,13.23
2022-10-24T10:05:46.952Z,15.95
2022-10-24T10:08:20.658Z,15.45
2022-10-24T10:11:04.848Z,16.58
2022-10-24T10:13:38.365Z,16.95
2022-10-24T10:16:07.366Z,13.80
2022-10-24T10:18:46.320Z,14.85
2022-10-24T10:21:16.226Z,17.13
2022-10-24T10:23:45.259Z,14.77
2022-10-24T10:26:21.742Z,12.70
2022-10-24T10:28:57.767Z,14.90
2022-10-24T10:31:28.111Z,13.93
2022-10-24T10:34:08.461Z,26.58
2022-10-24T10:36:44.633Z,17.05
2022-10-24T10:39:30.550Z,16.42
2022-10-24T10:42:04.617Z,16.00
2022-10-24T10:44:55.064Z,19.58
2022-10-24T10:47:34.906Z,14.75
2022-10-24T10:50:20.537Z,16.65
2022-10-24T10:52:49.960Z,16.92
2022-10-24T10:55:27.232Z,17.17
2022-10-24T10:58:03.069Z,18.60
2022-10-24T11:00:40.997Z,14.32
2022-10-24T11:03:20.982Z,14.55
2022-10-24T11:05:59.595Z,25.95
2022-10-24T11:08:46.720Z,41.10
2022-10-24T11:11:18.345Z,36.70
2022-10-24T11:13:50.608Z,38.03
2022-10-24T11:16:22.989Z,28.92
2022-10-24T11:18:53.880Z,27.80
2022-10-24T11:21:26.136Z,33.00
2022-10-24T11:23:56.599Z,26.90
2022-10-24T11:26:31.344Z,30.70
2022-10-24T11:29:04.608Z,26.67
2022-10-24T11:31:38.440Z,30.67
2022-10-24T11:34:15.088Z,27.65
2022-10-24T11:36:50.820Z,30.58
2022-10-24T11:39:25.661Z,36.20
2022-10-24T11:41:59.671Z,38.80
2022-10-24T11:44:37.506Z,48.17
2022-10-24T11:47:31.906Z,61.30
2022-10-24T11:50:05.991Z,60.72
2022-10-24T11:52:39.599Z,69.25
2022-10-24T11:55:12.399Z,66.38
2022-10-24T11:57:44.079Z,62.60
2022-10-24T12:00:19.505Z,70.38
2022-10-24T12:03:10.880Z,57.47
2022-10-24T12:06:06.331Z,60.33
2022-10-24T12:09:05.276Z,64.53
2022-10-24T12:11:47.319Z,53.72
2022-10-24T12:14:32.495Z,54.65
2022-10-24T12:17:16.896Z,50.15
2022-10-24T12:19:46.226Z,53.72
2022-10-24T12:22:21.792Z,54.15
2022-10-24T12:25:02.652Z,63.55
2022-10-24T12:27:35.541Z,62.25
2022-10-24T12:30:15.966Z,61.20
2022-10-24T12:32:46.906Z,22.65
2022-10-24T12:35:46.933Z,49.42
2022-10-24T12:38:39.846Z,71.22
2022-10-24T12:41:40.504Z,66.88
2022-10-24T12:44:38.894Z,70.03
2022-10-24T12:47:35.771Z,65.05
2022-10-24T12:50:36.615Z,63.15
2022-10-24T12:53:16.627Z,55.90
2022-10-24T12:56:09.007Z,66.45
2022-10-24T12:58:39.374Z,72.05
2022-10-24T13:01:11.018Z,70.68
2022-10-24T13:03:56.431Z,65.75
2022-10-24T13:06:28.625Z,62.97
2022-10-24T13:09:11.960Z,78.80
2022-10-24T13:11:54.562Z,78.05
2022-10-24T13:14:55.462Z,51.92
2022-10-24T13:17:33.581Z,50.13
2022-10-24T13:20:14.332Z,27.58
2022-10-24T13:22:43.055Z,21.38
2022-10-24T13:25:22.538Z,20.15
2022-10-24T13:28:23.553Z,14.25
2022-10-24T13:31:23.489Z,11.52
2022-10-24T13:33:53.157Z,12.00
2022-10-24T13:36:28.212Z,16.45
2022-10-24T13:39:00.555Z,11.50
2022-10-24T13:41:32.209Z,11.50
2022-10-24T13:44:05.140Z,11.93
2022-10-24T13:46:41.818Z,9.48
2022-10-24T13:49:18.840Z,9.45
2022-10-24T13:51:51.860Z,8.88
2022-10-24T13:54:22.488Z,12.70
2022-10-24T13:56:51.371Z,9.02
2022-10-24T13:59:33.038Z,9.82
2022-10-24T14:02:06.225Z,8.57
2022-10-24T14:04:36.000Z,11.20
2022-10-24T14:07:05.786Z,8.45
2022-10-24T14:09:40.421Z,7.38
2022-10-24T14:12:09.037Z,7.60
2022-10-24T14:14:40.954Z,8.63
2022-10-24T14:17:23.369Z,8.70
2022-10-24T14:19:55.359Z,10.02
2022-10-24T14:22:25.138Z,11.73
2022-10-24T14:24:52.697Z,8.35
2022-10-24T14:27:21.307Z,7.63
2022-10-24T14:29:55.035Z,8.15
2022-10-24T14:32:25.819Z,8.20
2022-10-24T14:34:54.965Z,8.57
2022-10-24T14:37:28.591Z,6.60
2022-10-24T14:39:56.875Z,7.95
2022-10-24T14:42:25.151Z,10.00
2022-10-24T14:44:58.340Z,11.18
2022-10-24T14:47:30.031Z,8.90
2022-10-24T14:49:58.384Z,8.35
2022-10-24T14:52:36.336Z,11.10
2022-10-24T14:55:06.715Z,9.95
2022-10-24T14:57:35.936Z,9.85
2022-10-24T15:00:08.299Z,9.13
2022-10-24T15:02:42.952Z,11.60
2022-10-24T15:05:30.654Z,9.27
2022-10-24T15:08:21.029Z,9.45
2022-10-24T15:10:50.162Z,12.30
2022-10-24T15:13:21.452Z,9.50
2022-10-24T15:15:54.996Z,8.63
2022-10-24T15:18:25.999Z,12.60
2022-10-24T15:20:59.431Z,11.80
2022-10-24T15:23:30.091Z,9.75
2022-10-24T15:26:01.603Z,10.57
2022-10-24T15:28:45.292Z,9.63
2022-10-24T15:31:14.149Z,12.32
2022-10-24T15:33:43.041Z,14.25
2022-10-24T15:36:18.337Z,16.48
2022-10-24T15:38:45.914Z,12.95
2022-10-24T15:41:13.456Z,12.18
2022-10-24T15:43:40.969Z,11.80
2022-10-24T15:46:08.455Z,12.60
2022-10-24T15:48:35.974Z,19.70
2022-10-24T15:51:05.105Z,17.50
2022-10-24T15:53:32.844Z,14.50
2022-10-24T15:56:00.408Z,15.85
2022-10-24T15:58:28.679Z,14.43
2022-10-24T16:00:56.282Z,14.55
2022-10-24T16:03:24.787Z,12.55
2022-10-24T16:05:55.303Z,15.73
2022-10-24T16:08:24.175Z,13.43
2022-10-24T16:10:53.412Z,14.30
2022-10-24T16:13:23.110Z,21.27
2022-10-24T16:15:50.777Z,19.67
2022-10-24T16:18:18.548Z,24.23
2022-10-24T16:20:46.214Z,22.42
2022-10-24T16:23:16.867Z,18.30
2022-10-24T16:25:46.191Z,26.38
2022-10-24T16:28:13.720Z,22.23
2022-10-24T16:30:43.287Z,23.30
2022-10-24T16:33:10.793Z,20.10
2022-10-24T16:35:39.507Z,20.02
2022-10-24T16:38:08.973Z,19.95
2022-10-24T16:43:11.455Z,20.20
2022-10-24T16:45:39.044Z,18.85
2022-10-24T16:48:07.186Z,22.67
2022-10-24T16:50:34.824Z,18.60
2022-10-24T16:53:05.180Z,17.35
2022-10-24T16:55:33.060Z,18.95
2022-10-24T16:58:00.624Z,16.95
2022-10-24T17:00:30.318Z,18.08
2022-10-24T17:02:58.947Z,18.48
2022-10-24T17:05:28.973Z,18.33
2022-10-24T17:07:56.705Z,19.10
2022-10-24T17:10:25.019Z,19.27
2022-10-24T17:12:53.828Z,22.30
2022-10-24T17:15:22.403Z,34.85
2022-10-24T17:17:51.812Z,25.73
2022-10-24T17:20:19.876Z,31.10
2022-10-24T17:22:48.311Z,38.30
2022-10-24T17:25:21.092Z,33.58
2022-10-24T17:27:49.799Z,33.78
2022-10-24T17:30:19.572Z,32.20
2022-10-24T17:32:47.755Z,26.50
2022-10-24T17:35:20.474Z,23.15
2022-10-24T17:37:58.130Z,21.98
2022-10-24T17:40:29.020Z,23.02
2022-10-24T17:42:57.181Z,19.98
2022-10-24T17:45:25.856Z,15.57
2022-10-24T17:47:53.557Z,18.98
2022-10-24T17:50:22.432Z,23.95
2022-10-24T17:52:52.088Z,19.73
2022-10-24T17:55:41.050Z,22.90
2022-10-24T17:58:09.312Z,19.83
2022-10-24T18:00:37.693Z,22.15
2022-10-24T18:03:05.694Z,19.27
2022-10-24T18:05:37.468Z,20.05
2022-10-24T18:08:05.314Z,24.17
2022-10-24T18:10:33.412Z,19.95
2022-10-24T18:13:01.798Z,21.02
2022-10-24T18:15:29.547Z,20.58
2022-10-24T18:17:57.068Z,22.27
2022-10-24T18:20:24.642Z,24.00
2022-10-24T18:22:53.727Z,20.83
2022-10-24T18:25:23.146Z,17.55
2022-10-24T18:27:51.335Z,18.05
2022-10-24T18:30:20.072Z,19.20
2022-10-24T18:32:48.456Z,16.10
2022-10-24T18:35:16.454Z,17.05
2022-10-24T18:37:44.058Z,17.73
2022-10-24T18:40:14.411Z,14.52
2022-10-24T18:42:48.852Z,13.23
2022-10-24T18:45:20.980Z,13.77
2022-10-24T18:47:49.138Z,16.63
2022-10-24T18:50:19.335Z,11.23
2022-10-24T18:52:52.428Z,12.00
2022-10-24T18:55:23.367Z,15.43
2022-10-24T18:57:52.031Z,14.63
2022-10-24T19:00:21.800Z,12.73
2022-10-24T19:02:56.893Z,15.45
2022-10-24T19:05:32.216Z,13.40
2022-10-24T19:07:59.926Z,11.82
2022-10-24T19:10:29.441Z,10.55
2022-10-24T19:12:57.372Z,13.05
2022-10-24T19:15:25.759Z,13.02
2022-10-24T19:17:53.339Z,15.98
2022-10-24T19:20:23.369Z,15.85
2022-10-24T19:22:51.284Z,15.95
2022-10-24T19:25:19.667Z,12.93
2022-10-24T19:27:49.275Z,13.65
2022-10-24T19:30:16.849Z,11.63
2022-10-24T19:32:44.573Z,13.95
2022-10-24T19:35:12.302Z,13.25
2022-10-24T19:37:39.868Z,9.98
2022-10-24T19:40:08.964Z,11.88
2022-10-24T19:42:36.818Z,12.80
2022-10-24T19:45:07.493Z,11.40
2022-10-24T19:47:35.447Z,9.57
2022-10-24T19:50:02.979Z,12.65
2022-10-24T19:52:30.511Z,11.43
2022-10-24T19:54:58.032Z,10.90
2022-10-24T19:57:25.585Z,15.52
2022-10-24T19:59:53.783Z,12.95
2022-10-24T20:02:22.876Z,11.82
2022-10-24T20:04:50.384Z,9.75
2022-10-24T20:07:18.208Z,10.30
2022-10-24T20:09:45.757Z,10.65
2022-10-24T20:12:13.480Z,10.43
2022-10-24T20:14:40.983Z,11.43
2022-10-24T20:17:08.494Z,9.85
2022-10-24T20:19:37.413Z,11.05
2022-10-24T20:22:04.934Z,12.18
2022-10-24T20:24:33.460Z,10.23
2022-10-24T20:27:01.686Z,10.77
2022-10-24T20:29:29.268Z,10.70
2022-10-24T20:31:56.910Z,10.68
2022-10-24T20:34:24.462Z,12.82
2022-10-24T20:36:53.341Z,15.52
2022-10-24T20:39:21.375Z,14.77
2022-10-24T20:41:51.893Z,10.95
2022-10-24T20:44:21.965Z,11.95
2022-10-24T20:46:49.527Z,11.05
2022-10-24T20:49:17.064Z,11.32
2022-10-24T20:51:44.573Z,11.05
2022-10-24T20:54:13.801Z,14.05
2022-10-24T20:56:42.742Z,10.98
2022-10-24T20:59:13.027Z,10.13
2022-10-24T21:01:41.131Z,8.15
2022-10-24T21:04:08.959Z,8.50
2022-10-24T21:06:36.992Z,15.45
2022-10-24T21:09:06.962Z,12.73
2022-10-24T21:11:36.769Z,13.57
2022-10-24T21:14:06.203Z,17.35
2022-10-24T21:16:34.454Z,13.05
2022-10-24T21:19:02.290Z,16.27
2022-10-24T21:21:30.297Z,18.60
2022-10-24T21:24:02.495Z,17.77
2022-10-24T21:26:33.565Z,19.70
2022-10-24T21:29:15.015Z,19.92
2022-10-24T21:31:50.473Z,17.73
2022-10-24T21:34:18.192Z,21.27
2022-10-24T21:36:46.069Z,21.08
2022-10-24T21:39:14.986Z,21.08
2022-10-24T21:41:42.868Z,18.65
2022-10-24T21:44:12.395Z,18.65
2022-10-24T21:46:39.932Z,17.13
2022-10-24T21:49:07.480Z,19.80
2022-10-24T21:51:37.279Z,17.30
2022-10-24T21:54:06.740Z,20.08
2022-10-24T21:56:36.887Z,18.67
2022-10-24T21:59:06.720Z,20.60
2022-10-24T22:01:38.054Z,21.08
2022-10-24T22:04:07.059Z,19.48
2022-10-24T22:06:36.309Z,22.63
2022-10-24T22:09:04.747Z,16.92
2022-10-24T22:11:34.142Z,22.65
2022-10-24T22:14:03.192Z,23.00
2022-10-24T22:16:32.291Z,20.95
2022-10-24T22:19:02.755Z,19.38
2022-10-24T22:21:32.170Z,20.58
2022-10-24T22:24:01.400Z,19.67
2022-10-24T22:26:29.661Z,19.80
2022-10-24T22:28:57.693Z,22.27
2022-10-24T22:31:26.965Z,21.80
2022-10-24T22:33:56.015Z,24.30
2022-10-24T22:36:41.061Z,25.25
2022-10-24T22:39:14.484Z,22.33
2022-10-24T22:41:42.818Z,18.08
2022-10-24T22:44:12.573Z,15.18
2022-10-24T22:47:07.168Z,14.13
2022-10-24T22:49:46.904Z,16.38
2022-10-24T22:52:16.369Z,12.18
2022-10-24T22:54:44.426Z,10.65
2022-10-24T22:57:12.447Z,12.18
2022-10-24T22:59:40.640Z,11.02
2022-10-24T23:02:24.420Z,9.43
2022-10-24T23:05:00.040Z,9.23
2022-10-24T23:07:37.195Z,8.05
2022-10-24T23:10:06.082Z,8.60
2022-10-24T23:12:34.202Z,9.05
2022-10-24T23:15:02.221Z,10.60
2022-10-24T23:17:32.788Z,11.60
2022-10-24T23:20:01.143Z,15.25
2022-10-24T23:22:32.187Z,14.52
2022-10-24T23:25:02.232Z,18.08
2022-10-24T23:27:35.710Z,20.13
2022-10-24T23:30:06.429Z,17.40
2022-10-24T23:32:38.235Z,20.48
2022-10-24T23:35:07.245Z,23.52
2022-10-24T23:37:38.269Z,23.77
2022-10-24T23:40:22.376Z,31.77
2022-10-24T23:42:51.295Z,31.10
2022-10-24T23:45:20.814Z,35.03
2022-10-24T23:48:06.066Z,35.40
2022-10-24T23:50:41.191Z,27.33
2022-10-24T23:53:23.736Z,30.05
2022-10-24T23:55:51.949Z,26.95
2022-10-24T23:58:19.534Z,29.33
